Time;durP1;ratioP1;P1;durP2;ratioP2;P2;SDS_P1;SDS_P2;PMS_P1;PMS_P2;Temp;Humidity;BMP_temperature;BMP_pressure;BME280_temperature;BME280_humidity;BME280_pressure;Samples;Min_cycle;Max_cycle;Signal;HPM_P1;HPM_P2
2021/11/27 00:00:37;;;;;;;9.97;9.57;;;4.70;99.90;;;;;;4879073;29;20464;-73
2021/11/27 00:03:04;;;;;;;9.97;9.57;;;4.70;99.90;;;;;;4878266;29;20502;-74
2021/11/27 00:05:34;;;;;;;9.60;9.20;;;4.90;99.90;;;;;;4878608;29;20497;-73
2021/11/27 00:08:02;;;;;;;10.20;9.70;;;4.90;99.90;;;;;;4878716;29;20464;-74
2021/11/27 00:10:30;;;;;;;9.83;9.33;;;5.00;99.90;;;;;;4878565;29;20489;-74
2021/11/27 00:12:58;;;;;;;10.03;9.53;;;4.90;99.90;;;;;;4878562;29;20486;-74
2021/11/27 00:15:27;;;;;;;10.20;9.70;;;5.00;99.90;;;;;;4878213;29;20538;-74
2021/11/27 00:17:54;;;;;;;10.00;9.50;;;4.90;99.90;;;;;;4878618;29;20467;-73
2021/11/27 00:20:25;;;;;;;9.80;9.20;;;4.90;99.90;;;;;;4878407;29;20468;-73
2021/11/27 00:22:53;;;;;;;9.90;9.40;;;4.90;99.90;;;;;;4878541;29;20497;-73
2021/11/27 00:25:20;;;;;;;10.40;9.80;;;4.90;99.90;;;;;;4878474;29;20464;-73
2021/11/27 00:27:47;;;;;;;10.30;9.80;;;4.90;99.90;;;;;;4878404;29;20567;-72
2021/11/27 00:30:17;;;;;;;11.30;10.60;;;4.80;99.90;;;;;;4878199;29;20460;-73
2021/11/27 00:32:44;;;;;;;10.53;9.90;;;4.70;99.90;;;;;;4878007;29;20460;-72
2021/11/27 00:35:12;;;;;;;10.70;10.20;;;4.70;99.90;;;;;;4877825;29;20476;-73
2021/11/27 00:37:39;;;;;;;10.73;10.23;;;4.60;99.90;;;;;;4877643;29;21105;-72
2021/11/27 00:40:10;;;;;;;10.13;9.63;;;4.60;99.90;;;;;;4878110;29;20460;-73
2021/11/27 00:42:37;;;;;;;9.80;9.20;;;4.60;99.90;;;;;;4877999;29;20489;-73
2021/11/27 00:45:10;;;;;;;10.10;9.60;;;4.60;99.90;;;;;;4877915;29;20549;-72
2021/11/27 00:47:37;;;;;;;10.20;9.60;;;4.70;99.90;;;;;;4878183;29;20497;-73
2021/11/27 00:50:05;;;;;;;9.93;9.53;;;4.70;99.90;;;;;;4877509;29;20499;-72
2021/11/27 00:52:31;;;;;;;10.10;9.60;;;4.70;99.90;;;;;;4877822;29;20833;-71
2021/11/27 00:54:58;;;;;;;10.90;10.07;;;4.70;99.90;;;;;;4877749;29;20456;-72
2021/11/27 00:57:26;;;;;;;11.10;10.47;;;4.70;99.90;;;;;;4877932;29;20464;-72
2021/11/27 00:59:53;;;;;;;11.53;10.93;;;4.70;99.90;;;;;;4877759;29;20823;-73
2021/11/27 01:02:19;;;;;;;10.90;10.30;;;4.60;99.90;;;;;;4877801;29;20463;-72
2021/11/27 01:04:47;;;;;;;11.20;10.63;;;4.60;99.90;;;;;;4877505;29;20489;-72
2021/11/27 01:07:14;;;;;;;11.37;10.77;;;4.60;99.90;;;;;;4877552;29;20809;-72
2021/11/27 01:09:40;;;;;;;11.67;11.00;;;4.70;99.90;;;;;;4877406;29;20457;-72
2021/11/27 01:12:08;;;;;;;11.00;10.30;;;4.70;99.90;;;;;;4877321;29;20461;-71
2021/11/27 01:14:37;;;;;;;10.70;10.20;;;4.70;99.90;;;;;;4877771;29;20460;-72
2021/11/27 01:17:07;;;;;;;11.10;10.23;;;4.60;99.90;;;;;;4877653;29;20459;-72
2021/11/27 01:19:37;;;;;;;11.33;10.63;;;4.60;99.90;;;;;;4877518;29;20540;-72
2021/11/27 01:22:07;;;;;;;10.27;9.70;;;4.60;99.90;;;;;;4877396;29;20456;-73
2021/11/27 01:24:34;;;;;;;11.40;10.70;;;4.60;99.90;;;;;;4877188;29;20999;-72
2021/11/27 01:27:01;;;;;;;10.60;10.10;;;4.60;99.90;;;;;;4877409;29;20460;-72
2021/11/27 01:29:28;;;;;;;10.67;10.07;;;4.60;99.90;;;;;;4877489;29;20511;-72
2021/11/27 01:31:56;;;;;;;11.63;10.93;;;4.60;99.90;;;;;;4877401;29;20516;-73
2021/11/27 01:34:23;;;;;;;11.63;10.93;;;4.60;99.90;;;;;;4877204;29;20771;-73
2021/11/27 01:36:49;;;;;;;12.37;11.57;;;4.70;99.90;;;;;;4876966;29;20495;-72
2021/11/27 01:39:17;;;;;;;12.70;11.80;;;4.60;99.90;;;;;;4877838;29;20858;-72
2021/11/27 01:41:44;;;;;;;13.17;12.27;;;4.60;99.90;;;;;;4876982;29;20460;-73
2021/11/27 01:44:11;;;;;;;12.77;11.97;;;4.60;99.90;;;;;;4876987;29;20496;-72
2021/11/27 01:46:39;;;;;;;13.53;12.70;;;4.50;99.90;;;;;;4877149;29;20564;-72
2021/11/27 01:49:09;;;;;;;13.80;12.77;;;4.50;99.90;;;;;;4877147;29;20499;-72
2021/11/27 01:51:37;;;;;;;13.33;12.33;;;4.50;99.90;;;;;;4876914;29;20487;-72
2021/11/27 01:54:07;;;;;;;12.83;12.03;;;4.50;99.90;;;;;;4877419;29;20843;-72
2021/11/27 01:56:42;;;;;;;12.90;12.10;;;4.50;99.90;;;;;;4877798;29;20452;-72
2021/11/27 01:59:09;;;;;;;13.13;12.23;;;4.50;99.90;;;;;;4877159;29;20460;-71
2021/11/27 02:01:37;;;;;;;12.50;11.80;;;4.60;99.90;;;;;;4878839;29;20547;-72
2021/11/27 02:04:08;;;;;;;12.03;11.33;;;4.60;99.90;;;;;;4880817;29;20559;-72
2021/11/27 02:06:38;;;;;;;13.17;12.30;;;4.70;99.90;;;;;;4880905;29;20456;-72
2021/11/27 02:09:10;;;;;;;12.20;11.30;;;4.70;99.90;;;;;;4881035;29;20456;-72
2021/11/27 02:11:37;;;;;;;11.50;10.90;;;4.70;99.90;;;;;;4881106;29;20492;-72
2021/11/27 02:14:06;;;;;;;12.33;11.43;;;4.70;99.90;;;;;;4881037;29;20449;-71
2021/11/27 02:16:33;;;;;;;11.97;11.17;;;4.80;99.90;;;;;;4881234;29;20512;-73
2021/11/27 02:19:00;;;;;;;12.33;11.53;;;4.90;99.90;;;;;;4880536;29;20463;-72
2021/11/27 02:21:29;;;;;;;12.17;11.40;;;4.80;99.90;;;;;;4880895;29;20448;-72
2021/11/27 02:23:56;;;;;;;13.20;12.30;;;4.80;99.90;;;;;;4880785;29;20510;-72
2021/11/27 02:26:26;;;;;;;12.23;11.43;;;4.80;99.90;;;;;;4880716;29;20914;-72
2021/11/27 02:28:56;;;;;;;12.50;11.40;;;4.80;99.90;;;;;;4880358;29;20461;-72
2021/11/27 02:31:24;;;;;;;14.23;13.33;;;4.80;99.90;;;;;;4880753;29;20830;-72
2021/11/27 02:33:51;;;;;;;11.80;11.00;;;4.80;99.90;;;;;;4880564;29;20944;-72
2021/11/27 02:36:18;;;;;;;12.47;11.67;;;4.80;99.90;;;;;;4880415;29;20484;-72
2021/11/27 02:38:46;;;;;;;11.20;10.60;;;4.80;99.90;;;;;;4880376;29;20471;-72
2021/11/27 02:41:13;;;;;;;11.00;10.40;;;4.80;99.90;;;;;;4880474;29;20460;-72
2021/11/27 02:43:40;;;;;;;12.00;11.30;;;4.80;99.90;;;;;;4880202;29;20501;-72
2021/11/27 02:46:07;;;;;;;10.87;10.20;;;4.90;99.90;;;;;;4880489;29;20459;-72
2021/11/27 02:48:34;;;;;;;11.80;11.10;;;4.90;99.90;;;;;;4880378;29;20467;-72
2021/11/27 02:51:01;;;;;;;11.67;11.07;;;4.90;99.90;;;;;;4880174;29;20456;-72
2021/11/27 02:53:28;;;;;;;11.70;11.00;;;4.90;99.90;;;;;;4880227;29;20500;-72
2021/11/27 02:55:56;;;;;;;12.27;11.57;;;4.90;99.90;;;;;;4880076;29;20470;-72
2021/11/27 02:58:23;;;;;;;11.90;11.20;;;4.90;99.90;;;;;;4880100;29;20807;-72
2021/11/27 03:00:54;;;;;;;11.60;10.87;;;4.90;99.90;;;;;;4880235;29;20460;-72
2021/11/27 03:03:21;;;;;;;11.60;10.90;;;5.00;99.90;;;;;;4879905;29;21023;-72
2021/11/27 03:05:47;;;;;;;11.97;11.17;;;5.00;99.90;;;;;;4880062;29;20845;-74
2021/11/27 03:08:14;;;;;;;13.37;12.47;;;5.00;99.90;;;;;;4879951;29;20459;-71
2021/11/27 03:10:41;;;;;;;12.40;11.60;;;5.00;99.90;;;;;;4880058;29;20467;-72
2021/11/27 03:13:09;;;;;;;11.53;10.93;;;5.00;99.90;;;;;;4880063;29;20463;-71
2021/11/27 03:15:41;;;;;;;13.57;12.77;;;5.10;99.90;;;;;;4879686;29;20460;-71
2021/11/27 03:18:08;;;;;;;11.33;10.70;;;5.00;99.90;;;;;;4879940;29;20539;-72
2021/11/27 03:20:34;;;;;;;12.73;11.93;;;5.00;99.90;;;;;;4879804;29;20468;-71
2021/11/27 03:23:02;;;;;;;12.57;11.77;;;5.00;99.90;;;;;;4879591;29;20469;-72
2021/11/27 03:25:29;;;;;;;12.40;11.80;;;5.00;99.90;;;;;;4879441;29;20498;-72
2021/11/27 03:27:56;;;;;;;12.40;11.60;;;5.00;99.90;;;;;;4879300;29;20952;-73
2021/11/27 03:30:24;;;;;;;12.10;11.40;;;5.00;99.90;;;;;;4879732;29;20464;-71
2021/11/27 03:32:51;;;;;;;11.03;10.50;;;5.00;99.90;;;;;;4879542;29;20466;-71
2021/11/27 03:35:18;;;;;;;12.57;11.87;;;5.00;99.90;;;;;;4879573;29;20475;-71
2021/11/27 03:37:45;;;;;;;11.87;11.27;;;5.10;99.90;;;;;;4878838;29;20497;-72
2021/11/27 03:40:12;;;;;;;12.07;11.37;;;5.10;99.90;;;;;;4879184;29;20458;-73
2021/11/27 03:42:39;;;;;;;12.53;11.70;;;5.10;99.90;;;;;;4879266;29;20589;-72
2021/11/27 03:45:11;;;;;;;11.87;11.13;;;5.00;99.90;;;;;;4879435;29;20503;-72
2021/11/27 03:47:56;;;;;;;13.23;12.60;;;5.00;99.90;;;;;;4879366;29;20953;-73
2021/11/27 03:50:23;;;;;;;13.83;13.03;;;4.90;99.90;;;;;;4879134;29;20934;-72
2021/11/27 03:52:50;;;;;;;14.70;14.00;;;4.90;99.90;;;;;;4879468;29;20458;-73
2021/11/27 03:55:17;;;;;;;14.37;13.80;;;4.70;99.90;;;;;;4879001;29;20460;-73
2021/11/27 03:57:44;;;;;;;14.17;13.40;;;4.70;99.90;;;;;;4879291;29;20816;-72
2021/11/27 04:00:11;;;;;;;14.53;13.83;;;4.60;99.90;;;;;;4878969;29;20457;-72
2021/11/27 04:02:39;;;;;;;14.93;14.23;;;4.60;99.90;;;;;;4878992;29;20452;-73
2021/11/27 04:05:07;;;;;;;14.00;13.33;;;4.50;99.90;;;;;;4878989;29;20502;-72
2021/11/27 04:07:34;;;;;;;14.53;13.70;;;4.40;99.90;;;;;;4879173;29;20466;-72
2021/11/27 04:10:00;;;;;;;13.47;12.87;;;4.50;99.90;;;;;;4878796;29;20468;-72
2021/11/27 04:12:27;;;;;;;13.87;13.07;;;4.50;99.90;;;;;;4878996;29;20464;-73
2021/11/27 04:14:54;;;;;;;12.63;12.03;;;4.50;99.90;;;;;;4878468;29;20452;-72
2021/11/27 04:17:20;;;;;;;13.00;12.40;;;4.50;99.90;;;;;;4878873;29;20978;-72
2021/11/27 04:19:48;;;;;;;11.20;10.70;;;4.50;99.90;;;;;;4878555;29;20464;-72
2021/11/27 04:22:15;;;;;;;11.93;11.23;;;4.50;99.90;;;;;;4878783;29;20456;-72
2021/11/27 04:24:42;;;;;;;11.53;11.07;;;4.60;99.90;;;;;;4878005;29;20907;-72
2021/11/27 04:27:08;;;;;;;11.80;11.20;;;4.70;99.90;;;;;;4878334;29;20887;-72
2021/11/27 04:29:35;;;;;;;11.00;10.50;;;4.80;99.90;;;;;;4878592;29;20973;-72
2021/11/27 04:32:02;;;;;;;11.47;10.87;;;4.90;99.90;;;;;;4878382;29;20499;-73
2021/11/27 04:34:28;;;;;;;11.90;11.30;;;4.90;99.90;;;;;;4878259;29;20457;-72
2021/11/27 04:36:57;;;;;;;10.90;10.40;;;4.90;99.90;;;;;;4878025;29;20484;-72
2021/11/27 04:39:23;;;;;;;10.97;10.40;;;4.90;99.90;;;;;;4878159;29;20472;-72
2021/11/27 04:41:50;;;;;;;9.70;9.30;;;4.90;99.90;;;;;;4878498;29;20473;-72
2021/11/27 04:44:17;;;;;;;11.13;10.53;;;4.90;99.90;;;;;;4878139;29;20589;-72
2021/11/27 04:46:43;;;;;;;10.90;10.40;;;5.00;99.90;;;;;;4877966;29;20998;-72
2021/11/27 04:49:10;;;;;;;11.40;10.80;;;5.00;99.90;;;;;;4878164;29;20963;-72
2021/11/27 04:51:37;;;;;;;9.90;9.60;;;5.10;99.90;;;;;;4878258;29;20460;-72
2021/11/27 04:54:05;;;;;;;10.23;9.77;;;5.00;99.90;;;;;;4878264;29;20951;-72
2021/11/27 04:56:31;;;;;;;10.70;10.30;;;5.10;99.90;;;;;;4878053;29;20458;-71
2021/11/27 04:58:58;;;;;;;10.37;9.87;;;5.10;99.90;;;;;;4878255;29;20511;-72
2021/11/27 05:01:26;;;;;;;10.07;9.57;;;5.10;99.90;;;;;;4877932;29;20459;-72
2021/11/27 05:03:52;;;;;;;9.23;8.93;;;5.10;99.90;;;;;;4878036;29;20467;-71
2021/11/27 05:06:19;;;;;;;10.30;9.57;;;5.10;99.90;;;;;;4878442;29;20452;-72
2021/11/27 05:08:46;;;;;;;9.50;8.90;;;5.10;99.90;;;;;;4877929;29;20456;-72
2021/11/27 05:11:14;;;;;;;9.77;9.27;;;5.10;99.90;;;;;;4877690;29;20548;-74
2021/11/27 05:13:41;;;;;;;9.23;8.90;;;5.10;99.90;;;;;;4877848;29;20467;-72
2021/11/27 05:16:08;;;;;;;9.27;8.87;;;5.10;99.90;;;;;;4877887;29;20521;-72
2021/11/27 05:18:35;;;;;;;10.03;9.53;;;5.20;99.90;;;;;;4877581;29;20463;-73
2021/11/27 05:21:02;;;;;;;9.57;9.27;;;5.20;99.90;;;;;;4877873;29;20456;-72
2021/11/27 05:23:29;;;;;;;10.30;9.80;;;5.20;99.90;;;;;;4877675;29;20516;-72
2021/11/27 05:25:57;;;;;;;10.53;10.13;;;5.20;99.90;;;;;;4877515;29;20496;-71
2021/11/27 05:28:25;;;;;;;10.27;9.87;;;5.20;99.90;;;;;;4877301;29;20492;-73
2021/11/27 05:30:53;;;;;;;9.90;9.50;;;5.20;99.90;;;;;;4877644;29;20805;-72
2021/11/27 05:33:24;;;;;;;8.97;8.67;;;5.20;99.90;;;;;;4877404;29;20888;-72
2021/11/27 05:35:52;;;;;;;9.50;9.10;;;5.20;99.90;;;;;;4876815;29;20700;-72
2021/11/27 05:38:18;;;;;;;9.40;9.00;;;5.20;99.90;;;;;;4877413;29;20492;-72
2021/11/27 05:40:46;;;;;;;8.80;8.40;;;5.10;99.90;;;;;;4877570;29;20460;-71
2021/11/27 05:43:12;;;;;;;9.40;8.90;;;5.20;99.90;;;;;;4876995;29;21110;-72
2021/11/27 05:45:40;;;;;;;9.30;9.00;;;5.20;99.90;;;;;;4877261;29;20495;-72
2021/11/27 05:48:07;;;;;;;9.50;9.10;;;5.10;99.90;;;;;;4877364;29;20464;-72
2021/11/27 05:50:34;;;;;;;8.67;8.37;;;5.10;99.90;;;;;;4877645;29;20464;-72
2021/11/27 05:53:01;;;;;;;9.50;9.20;;;5.10;99.90;;;;;;4877073;29;20454;-72
2021/11/27 05:55:28;;;;;;;9.07;8.77;;;5.10;99.90;;;;;;4877233;29;20456;-72
2021/11/27 05:57:54;;;;;;;9.23;8.83;;;5.10;99.90;;;;;;4877070;29;20982;-72
2021/11/27 06:00:21;;;;;;;9.60;9.20;;;5.10;99.90;;;;;;4877271;29;20460;-72
2021/11/27 06:02:49;;;;;;;8.70;8.40;;;5.10;99.90;;;;;;4877360;29;20465;-72
2021/11/27 06:05:16;;;;;;;9.70;9.30;;;5.10;99.90;;;;;;4877061;29;20500;-72
2021/11/27 06:07:42;;;;;;;9.73;9.37;;;5.10;99.90;;;;;;4877366;29;20460;-72
2021/11/27 06:10:10;;;;;;;9.53;9.23;;;5.10;99.90;;;;;;4876999;29;20461;-71
2021/11/27 06:12:37;;;;;;;10.07;9.67;;;5.10;99.90;;;;;;4877210;29;20808;-72
2021/11/27 06:15:05;;;;;;;9.67;9.23;;;5.10;99.90;;;;;;4877225;29;20461;-72
2021/11/27 06:17:32;;;;;;;9.20;8.90;;;5.10;99.90;;;;;;4877205;29;20464;-72
2021/11/27 06:20:00;;;;;;;8.83;8.53;;;5.10;99.90;;;;;;4877151;29;20463;-71
2021/11/27 06:22:27;;;;;;;9.33;9.03;;;5.20;99.90;;;;;;4877097;29;20456;-71
2021/11/27 06:24:53;;;;;;;10.47;10.00;;;5.10;99.90;;;;;;4876991;29;20551;-72
2021/11/27 06:27:20;;;;;;;10.30;9.80;;;5.10;99.90;;;;;;4876937;29;20465;-71
2021/11/27 06:29:48;;;;;;;10.23;9.77;;;5.10;99.90;;;;;;4876992;29;20470;-71
2021/11/27 06:32:16;;;;;;;10.00;9.57;;;5.00;99.90;;;;;;4876990;29;20456;-72
2021/11/27 06:34:43;;;;;;;9.97;9.57;;;5.00;99.90;;;;;;4876971;29;20457;-72
2021/11/27 06:37:11;;;;;;;10.43;9.83;;;5.10;99.90;;;;;;4876456;29;21006;-71
2021/11/27 06:39:38;;;;;;;10.60;10.10;;;5.00;99.90;;;;;;4876988;29;20456;-71
2021/11/27 06:42:06;;;;;;;10.47;10.07;;;5.10;99.90;;;;;;4876994;29;20469;-72
2021/11/27 06:44:33;;;;;;;10.80;10.30;;;5.10;99.90;;;;;;4876816;29;20528;-72
2021/11/27 06:47:00;;;;;;;10.47;10.00;;;5.10;99.90;;;;;;4877287;29;21082;-71
2021/11/27 06:49:27;;;;;;;10.23;9.73;;;5.10;99.90;;;;;;4880464;29;20464;-72
2021/11/27 06:51:53;;;;;;;9.90;9.50;;;5.10;99.90;;;;;;4880293;29;20465;-72
2021/11/27 06:54:22;;;;;;;10.10;9.70;;;5.10;99.90;;;;;;4880332;29;20455;-71
2021/11/27 06:56:49;;;;;;;9.70;9.30;;;5.10;99.90;;;;;;4880282;29;20966;-72
2021/11/27 06:59:15;;;;;;;10.40;10.00;;;5.00;99.90;;;;;;4880146;29;20871;-72
2021/11/27 07:01:42;;;;;;;10.40;10.00;;;5.00;99.90;;;;;;4880265;29;20472;-72
2021/11/27 07:04:09;;;;;;;10.70;10.20;;;5.00;99.90;;;;;;4879742;29;20460;-72
2021/11/27 07:06:36;;;;;;;10.13;9.73;;;5.00;99.90;;;;;;4880097;29;20489;-72
2021/11/27 07:09:03;;;;;;;9.90;9.50;;;5.10;99.90;;;;;;4880194;29;20452;-72
2021/11/27 07:11:31;;;;;;;9.83;9.43;;;5.10;99.90;;;;;;4879885;29;20462;-71
2021/11/27 07:13:58;;;;;;;9.97;9.57;;;5.10;99.90;;;;;;4879946;29;20833;-72
2021/11/27 07:16:25;;;;;;;10.00;9.60;;;5.10;99.90;;;;;;4880041;29;20483;-75
2021/11/27 07:18:51;;;;;;;10.23;9.83;;;5.10;99.90;;;;;;4878035;29;20461;-75
2021/11/27 07:21:18;;;;;;;9.97;9.47;;;5.20;99.90;;;;;;4879551;29;20872;-72
2021/11/27 07:23:45;;;;;;;10.13;9.47;;;5.10;99.90;;;;;;4877167;29;20907;-72
2021/11/27 07:26:11;;;;;;;10.57;10.27;;;5.20;99.90;;;;;;4879298;29;20518;-72
2021/11/27 07:28:39;;;;;;;10.50;10.10;;;5.20;99.90;;;;;;4879646;29;20809;-72
2021/11/27 07:31:06;;;;;;;10.50;10.13;;;5.20;99.90;;;;;;4879760;29;20516;-72
2021/11/27 07:33:33;;;;;;;10.83;10.43;;;5.20;99.90;;;;;;4879406;29;20527;-72
2021/11/27 07:36:00;;;;;;;10.00;9.60;;;5.20;99.90;;;;;;4879244;29;20956;-72
2021/11/27 07:38:26;;;;;;;9.47;9.17;;;5.20;99.90;;;;;;4879477;29;20477;-70
2021/11/27 07:40:53;;;;;;;10.53;10.00;;;5.20;99.90;;;;;;4879492;29;20508;-74
2021/11/27 07:43:20;;;;;;;10.07;9.73;;;5.30;99.90;;;;;;4879434;29;20874;-74
2021/11/27 07:45:48;;;;;;;9.53;9.23;;;5.30;99.90;;;;;;4879193;29;21081;-73
2021/11/27 07:48:14;;;;;;;10.10;9.70;;;5.30;99.90;;;;;;4879175;29;20954;-72
2021/11/27 07:50:41;;;;;;;9.30;9.00;;;5.30;99.90;;;;;;4879386;29;20464;-74
2021/11/27 07:53:08;;;;;;;9.73;9.37;;;5.30;99.90;;;;;;4879273;29;20463;-73
2021/11/27 07:55:35;;;;;;;9.77;9.27;;;5.40;99.90;;;;;;4879075;29;20456;-73
2021/11/27 07:58:02;;;;;;;10.07;9.67;;;5.40;99.90;;;;;;4878885;29;20948;-73
2021/11/27 08:00:29;;;;;;;11.10;10.30;;;5.50;99.90;;;;;;4878404;29;20813;-74
2021/11/27 08:02:57;;;;;;;9.83;9.50;;;5.50;99.90;;;;;;4879046;29;20456;-74
2021/11/27 08:05:24;;;;;;;9.00;8.70;;;5.50;99.90;;;;;;4878934;29;20494;-74
2021/11/27 08:07:51;;;;;;;10.10;9.80;;;5.60;99.90;;;;;;4878989;29;20460;-73
2021/11/27 08:10:18;;;;;;;10.23;9.83;;;5.80;99.90;;;;;;4878906;29;20466;-73
2021/11/27 08:12:45;;;;;;;9.67;9.37;;;5.90;99.90;;;;;;4878709;29;20458;-74
2021/11/27 08:15:12;;;;;;;9.73;9.43;;;6.00;99.90;;;;;;4878776;29;20522;-73
2021/11/27 08:17:40;;;;;;;9.30;9.00;;;6.10;99.90;;;;;;4878918;29;20683;-73
2021/11/27 08:20:10;;;;;;;9.63;9.33;;;6.10;99.90;;;;;;4878665;29;20995;-73
2021/11/27 08:22:37;;;;;;;9.33;9.03;;;6.70;99.90;;;;;;4878770;29;20563;-73
2021/11/27 08:25:04;;;;;;;9.90;9.60;;;7.70;99.90;;;;;;4878512;29;20552;-74
2021/11/27 08:27:33;;;;;;;10.20;9.80;;;7.70;99.90;;;;;;4878511;29;20861;-74
2021/11/27 08:30:02;;;;;;;10.10;9.70;;;7.10;99.90;;;;;;4878417;29;20460;-72
2021/11/27 08:32:30;;;;;;;10.17;9.87;;;6.80;99.90;;;;;;4878201;29;20863;-73
2021/11/27 08:34:57;;;;;;;8.40;8.10;;;6.70;99.90;;;;;;4878397;29;21137;-73
2021/11/27 08:37:25;;;;;;;11.00;10.60;;;7.00;99.90;;;;;;4876457;29;20495;-73
2021/11/27 08:39:51;;;;;;;9.07;8.77;;;7.20;99.90;;;;;;4878529;29;20471;-72
2021/11/27 08:42:21;;;;;;;10.23;9.80;;;7.10;99.90;;;;;;4878549;29;20501;-73
2021/11/27 08:44:48;;;;;;;9.47;9.07;;;7.10;99.90;;;;;;4878720;29;20547;-74
2021/11/27 08:47:14;;;;;;;9.47;9.17;;;7.30;99.90;;;;;;4877960;29;20974;-73
2021/11/27 08:49:41;;;;;;;9.07;8.67;;;7.20;99.90;;;;;;4878153;29;20463;-72
2021/11/27 08:52:08;;;;;;;9.10;8.70;;;7.10;99.90;;;;;;4878167;29;20516;-73
2021/11/27 08:54:36;;;;;;;9.17;8.57;;;7.10;99.90;;;;;;4878096;29;20468;-73
2021/11/27 08:57:03;;;;;;;9.80;9.40;;;6.90;99.90;;;;;;4877933;29;20461;-72
2021/11/27 08:59:30;;;;;;;9.83;9.40;;;6.90;99.90;;;;;;4877998;29;20953;-72
2021/11/27 09:01:56;;;;;;;11.07;10.50;;;6.80;99.90;;;;;;4877895;29;21030;-72
2021/11/27 09:04:23;;;;;;;11.90;11.30;;;6.90;99.90;;;;;;4880241;29;20470;-72
2021/11/27 09:06:51;;;;;;;10.43;9.93;;;7.10;99.90;;;;;;4897025;29;20505;-72
2021/11/27 09:09:17;;;;;;;10.23;9.83;;;7.10;99.90;;;;;;4896868;29;20455;-72
2021/11/27 09:11:45;;;;;;;8.90;8.60;;;7.10;99.90;;;;;;4896557;29;20467;-72
2021/11/27 09:14:12;;;;;;;10.67;10.27;;;7.00;99.90;;;;;;4897014;29;20470;-73
2021/11/27 09:16:39;;;;;;;9.87;9.47;;;6.90;99.90;;;;;;4896941;29;20465;-72
2021/11/27 09:19:06;;;;;;;10.33;9.93;;;7.00;99.90;;;;;;4896835;29;20458;-72
2021/11/27 09:21:34;;;;;;;9.60;9.30;;;7.10;99.90;;;;;;4896748;29;20462;-72
2021/11/27 09:24:03;;;;;;;10.00;9.50;;;7.30;99.90;;;;;;4896895;29;20459;-72
2021/11/27 09:26:30;;;;;;;10.30;9.90;;;7.40;99.90;;;;;;4896769;29;21012;-70
2021/11/27 09:28:58;;;;;;;9.50;9.20;;;7.50;99.90;;;;;;4896767;29;20458;-71
2021/11/27 09:31:25;;;;;;;9.73;9.33;;;7.50;99.90;;;;;;4896716;29;20822;-71
2021/11/27 09:33:51;;;;;;;10.30;9.90;;;7.50;99.90;;;;;;4896689;29;20540;-73
2021/11/27 09:36:20;;;;;;;10.30;9.90;;;7.60;99.90;;;;;;4896282;29;20497;-72
2021/11/27 09:38:48;;;;;;;10.73;10.20;;;7.90;99.90;;;;;;4896695;29;20554;-73
2021/11/27 09:41:17;;;;;;;9.53;9.13;;;7.90;99.90;;;;;;4896642;29;20517;-72
2021/11/27 09:43:48;;;;;;;9.20;8.90;;;7.80;99.90;;;;;;4896572;29;20819;-72
2021/11/27 09:46:19;;;;;;;9.50;9.17;;;8.00;99.90;;;;;;4896353;29;20495;-72
2021/11/27 09:48:49;;;;;;;9.60;9.10;;;8.40;99.90;;;;;;4896480;29;20883;-73
2021/11/27 09:51:16;;;;;;;10.37;10.07;;;8.90;99.90;;;;;;4894474;29;20596;-72
2021/11/27 09:53:45;;;;;;;10.30;9.80;;;9.30;99.90;;;;;;4896174;29;20459;-73
2021/11/27 09:56:12;;;;;;;10.60;10.00;;;9.40;99.90;;;;;;4896506;29;20451;-72
2021/11/27 09:58:39;;;;;;;10.93;10.53;;;8.90;99.90;;;;;;4896552;29;20451;-73
2021/11/27 10:01:07;;;;;;;10.47;10.17;;;8.70;99.90;;;;;;4896322;29;20455;-74
2021/11/27 10:03:39;;;;;;;10.50;10.20;;;8.30;99.90;;;;;;4895767;29;20478;-72
2021/11/27 10:06:05;;;;;;;10.50;10.10;;;8.30;99.90;;;;;;4896342;29;20542;-72
2021/11/27 10:08:34;;;;;;;10.10;9.40;;;8.50;99.90;;;;;;4896322;29;20482;-72
2021/11/27 10:11:01;;;;;;;8.33;7.93;;;8.80;99.90;;;;;;4896511;29;20491;-73
2021/11/27 10:13:28;;;;;;;8.50;8.20;;;8.90;99.90;;;;;;4896335;29;20482;-72
2021/11/27 10:15:55;;;;;;;8.57;8.20;;;9.00;99.90;;;;;;4896400;29;20459;-72
2021/11/27 10:18:23;;;;;;;9.20;8.87;;;9.50;99.90;;;;;;4895453;29;20605;-72
2021/11/27 10:21:19;;;;;;;9.63;9.13;;;10.10;99.90;;;;;;4896387;29;21036;-72
2021/11/27 10:23:46;;;;;;;8.70;8.40;;;11.20;99.90;;;;;;4899914;29;20451;-73
2021/11/27 10:26:35;;;;;;;10.47;10.07;;;12.40;99.90;;;;;;4899874;29;20490;-72
2021/11/27 10:29:20;;;;;;;10.10;9.70;;;12.80;97.50;;;;;;4900082;29;20459;-72
2021/11/27 10:31:50;;;;;;;9.97;9.67;;;12.50;97.20;;;;;;4899701;29;20474;-73
2021/11/27 10:34:18;;;;;;;9.90;9.50;;;12.30;97.60;;;;;;4899840;29;20451;-72
2021/11/27 10:36:47;;;;;;;10.30;9.80;;;12.40;98.40;;;;;;4899529;29;20487;-72
2021/11/27 10:39:13;;;;;;;10.07;9.77;;;13.60;97.10;;;;;;4899348;29;20458;-72
2021/11/27 10:41:56;;;;;;;10.37;9.97;;;14.40;94.80;;;;;;4899149;29;20957;-71
2021/11/27 10:44:27;;;;;;;10.10;9.80;;;13.90;94.30;;;;;;4899172;29;20455;-72
2021/11/27 10:47:08;;;;;;;10.47;10.10;;;13.70;94.50;;;;;;4899027;29;20494;-71
2021/11/27 10:49:35;;;;;;;10.93;10.47;;;13.10;94.90;;;;;;4899253;29;20455;-72
2021/11/27 10:52:09;;;;;;;9.77;9.40;;;12.10;95.40;;;;;;4897739;29;20479;-71
2021/11/27 10:54:44;;;;;;;9.70;9.27;;;11.30;96.00;;;;;;4897898;29;20915;-71
2021/11/27 10:57:26;;;;;;;10.33;9.90;;;10.70;97.10;;;;;;4899026;29;20455;-71
2021/11/27 10:59:54;;;;;;;9.80;9.27;;;10.20;98.40;;;;;;4898944;29;20462;-71
2021/11/27 11:02:23;;;;;;;9.30;8.97;;;9.80;99.90;;;;;;4898791;29;20457;-72
2021/11/27 11:05:00;;;;;;;10.37;9.73;;;9.70;99.90;;;;;;4898865;29;20562;-72
2021/11/27 11:07:30;;;;;;;9.73;9.20;;;9.70;99.90;;;;;;4899016;29;20498;-72
2021/11/27 11:10:08;;;;;;;9.97;9.40;;;9.50;99.90;;;;;;4898690;29;20554;-71
2021/11/27 11:12:37;;;;;;;9.70;9.03;;;9.50;99.90;;;;;;4898895;29;20465;-72
2021/11/27 11:15:16;;;;;;;10.23;9.73;;;9.30;99.90;;;;;;4898608;29;20466;-72
2021/11/27 11:17:44;;;;;;;9.90;9.50;;;9.00;99.90;;;;;;4897870;29;20470;-71
2021/11/27 11:20:28;;;;;;;9.70;9.30;;;8.70;99.90;;;;;;4898687;29;20462;-72
2021/11/27 11:23:10;;;;;;;9.60;9.20;;;8.60;99.90;;;;;;4898605;29;20502;-72
2021/11/27 11:25:40;;;;;;;9.60;9.30;;;8.60;99.90;;;;;;4898382;29;20535;-71
2021/11/27 11:28:16;;;;;;;9.80;9.40;;;8.70;99.90;;;;;;4898417;29;20482;-72
2021/11/27 11:30:45;;;;;;;9.20;8.90;;;8.60;99.90;;;;;;4898343;29;20458;-72
2021/11/27 11:33:12;;;;;;;9.50;9.20;;;8.40;99.90;;;;;;4897343;29;20459;-72
2021/11/27 11:35:39;;;;;;;9.53;9.23;;;8.10;99.90;;;;;;4898001;29;20482;-73
2021/11/27 11:38:13;;;;;;;10.00;9.60;;;8.00;99.90;;;;;;4897963;29;20486;-72
2021/11/27 11:40:40;;;;;;;10.13;9.73;;;8.10;99.90;;;;;;4898148;29;20462;-72
2021/11/27 11:43:07;;;;;;;9.73;9.30;;;8.00;99.90;;;;;;4898355;29;20459;-72
2021/11/27 11:45:34;;;;;;;9.63;9.33;;;8.20;99.90;;;;;;4898171;29;20465;-71
2021/11/27 11:48:02;;;;;;;10.00;9.60;;;8.20;99.90;;;;;;4897868;29;20498;-72
2021/11/27 11:50:31;;;;;;;10.30;9.90;;;8.30;99.90;;;;;;4898053;29;20526;-72
2021/11/27 11:53:05;;;;;;;10.77;10.17;;;8.40;99.90;;;;;;4898082;29;20463;-72
2021/11/27 11:55:35;;;;;;;8.70;8.40;;;8.50;99.90;;;;;;4897905;29;20467;-72
2021/11/27 11:58:02;;;;;;;9.83;9.23;;;8.40;99.90;;;;;;4897817;29;20538;-72
2021/11/27 12:00:31;;;;;;;9.63;9.33;;;8.30;99.90;;;;;;4897923;29;20519;-72
2021/11/27 12:03:09;;;;;;;10.07;9.67;;;8.40;99.90;;;;;;4897786;29;20462;-72
2021/11/27 12:05:58;;;;;;;9.93;9.53;;;8.60;99.90;;;;;;4897736;29;20534;-72
2021/11/27 12:08:58;;;;;;;10.10;9.47;;;8.60;99.90;;;;;;4897669;29;20463;-71
2021/11/27 12:11:56;;;;;;;10.60;10.10;;;8.40;99.90;;;;;;4897597;29;20503;-72
2021/11/27 12:14:56;;;;;;;10.43;10.00;;;8.40;99.90;;;;;;4897703;29;20558;-72
2021/11/27 12:17:23;;;;;;;10.70;10.20;;;8.30;99.90;;;;;;4897519;29;20483;-72
2021/11/27 12:19:52;;;;;;;10.30;9.80;;;8.50;99.90;;;;;;4897529;29;20473;-72
2021/11/27 12:22:39;;;;;;;10.10;9.60;;;8.60;99.90;;;;;;4897457;29;20463;-72
2021/11/27 12:25:18;;;;;;;10.30;9.50;;;8.90;99.90;;;;;;4897262;29;20506;-72
2021/11/27 12:28:21;;;;;;;10.07;9.67;;;8.70;99.90;;;;;;4897255;29;20530;-72
2021/11/27 12:31:05;;;;;;;9.17;8.87;;;8.70;99.90;;;;;;4897403;29;20451;-72
2021/11/27 12:33:58;;;;;;;9.73;9.33;;;8.60;99.90;;;;;;4897269;29;20462;-72
2021/11/27 12:36:46;;;;;;;9.97;9.47;;;8.40;99.90;;;;;;4897230;29;20518;-72
2021/11/27 12:39:17;;;;;;;8.97;8.63;;;8.40;99.90;;;;;;4896951;29;20466;-72
2021/11/27 12:41:46;;;;;;;8.77;8.47;;;8.30;99.90;;;;;;4897006;29;20973;-72
2021/11/27 12:44:19;;;;;;;10.07;9.43;;;8.00;99.90;;;;;;4896867;29;20470;-72
2021/11/27 12:46:51;;;;;;;9.33;9.03;;;7.80;99.90;;;;;;4896862;29;21031;-72
2021/11/27 12:49:53;;;;;;;9.20;8.90;;;8.00;99.90;;;;;;4896933;29;20455;-72
2021/11/27 12:52:43;;;;;;;8.40;8.10;;;8.10;99.90;;;;;;4896936;29;20542;-72
2021/11/27 12:55:31;;;;;;;10.70;10.20;;;8.10;99.90;;;;;;4896778;29;20506;-72